sensor_id;sensor_type;location;lat;lon;timestamp;P1;durP1;ratioP1;P2;durP2;ratioP2
69953;SDS011;57276;51.364;12.376;2022-12-18T00:03:57;35.95;;;14.73;;
69953;SDS011;57276;51.364;12.376;2022-12-18T00:09:59;42.40;;;16.77;;
69953;SDS011;57276;51.364;12.376;2022-12-18T00:16:11;33.90;;;15.30;;
69953;SDS011;57276;51.364;12.376;2022-12-18T00:22:12;34.90;;;14.45;;
69953;SDS011;57276;51.364;12.376;2022-12-18T00:28:14;31.40;;;15.10;;
69953;SDS011;57276;51.364;12.376;2022-12-18T00:34:15;32.58;;;16.55;;
69953;SDS011;57276;51.364;12.376;2022-12-18T00:40:17;30.77;;;12.70;;
69953;SDS011;57276;51.364;12.376;2022-12-18T00:46:18;35.50;;;14.73;;
69953;SDS011;57276;51.364;12.376;2022-12-18T00:52:22;30.83;;;13.77;;
69953;SDS011;57276;51.364;12.376;2022-12-18T00:58:23;32.03;;;14.13;;
69953;SDS011;57276;51.364;12.376;2022-12-18T01:04:25;36.90;;;14.77;;
69953;SDS011;57276;51.364;12.376;2022-12-18T01:10:26;36.65;;;15.50;;
69953;SDS011;57276;51.364;12.376;2022-12-18T01:16:31;30.23;;;14.77;;
69953;SDS011;57276;51.364;12.376;2022-12-18T01:22:33;30.70;;;13.57;;
69953;SDS011;57276;51.364;12.376;2022-12-18T01:28:34;29.50;;;13.90;;
69953;SDS011;57276;51.364;12.376;2022-12-18T01:34:36;34.00;;;13.40;;
69953;SDS011;57276;51.364;12.376;2022-12-18T01:40:38;28.33;;;12.18;;
69953;SDS011;57276;51.364;12.376;2022-12-18T01:46:40;29.10;;;11.77;;
69953;SDS011;57276;51.364;12.376;2022-12-18T01:52:48;29.92;;;12.13;;
69953;SDS011;57276;51.364;12.376;2022-12-18T01:58:56;29.03;;;13.53;;
69953;SDS011;57276;51.364;12.376;2022-12-18T02:04:59;25.38;;;11.82;;
69953;SDS011;57276;51.364;12.376;2022-12-18T02:11:05;26.40;;;10.93;;
69953;SDS011;57276;51.364;12.376;2022-12-18T02:17:21;27.03;;;11.97;;
69953;SDS011;57276;51.364;12.376;2022-12-18T02:29:25;26.67;;;12.77;;
69953;SDS011;57276;51.364;12.376;2022-12-18T02:35:29;27.15;;;12.52;;
69953;SDS011;57276;51.364;12.376;2022-12-18T02:41:33;26.55;;;12.05;;
69953;SDS011;57276;51.364;12.376;2022-12-18T02:47:38;29.90;;;13.03;;
69953;SDS011;57276;51.364;12.376;2022-12-18T02:53:50;31.77;;;12.07;;
69953;SDS011;57276;51.364;12.376;2022-12-18T02:59:58;27.57;;;11.70;;
69953;SDS011;57276;51.364;12.376;2022-12-18T03:06:06;27.05;;;11.82;;
69953;SDS011;57276;51.364;12.376;2022-12-18T03:12:14;23.85;;;12.07;;
69953;SDS011;57276;51.364;12.376;2022-12-18T03:18:34;27.13;;;11.33;;
69953;SDS011;57276;51.364;12.376;2022-12-18T03:24:37;19.65;;;10.15;;
69953;SDS011;57276;51.364;12.376;2022-12-18T03:30:42;23.23;;;10.70;;
69953;SDS011;57276;51.364;12.376;2022-12-18T03:36:45;24.45;;;10.63;;
69953;SDS011;57276;51.364;12.376;2022-12-18T03:42:52;19.80;;;10.10;;
69953;SDS011;57276;51.364;12.376;2022-12-18T03:49:32;26.07;;;10.83;;
69953;SDS011;57276;51.364;12.376;2022-12-18T03:55:27;20.60;;;10.07;;
69953;SDS011;57276;51.364;12.376;2022-12-18T04:01:36;22.13;;;10.60;;
69953;SDS011;57276;51.364;12.376;2022-12-18T04:07:39;20.55;;;9.52;;
69953;SDS011;57276;51.364;12.376;2022-12-18T04:13:43;20.92;;;10.50;;
69953;SDS011;57276;51.364;12.376;2022-12-18T04:19:55;21.13;;;9.50;;
69953;SDS011;57276;51.364;12.376;2022-12-18T04:25:58;30.38;;;9.45;;
69953;SDS011;57276;51.364;12.376;2022-12-18T04:32:13;22.93;;;8.57;;
69953;SDS011;57276;51.364;12.376;2022-12-18T04:38:17;18.80;;;8.73;;
69953;SDS011;57276;51.364;12.376;2022-12-18T04:44:22;20.67;;;9.10;;
69953;SDS011;57276;51.364;12.376;2022-12-18T04:50:24;19.63;;;8.27;;
69953;SDS011;57276;51.364;12.376;2022-12-18T04:56:25;18.27;;;8.23;;
69953;SDS011;57276;51.364;12.376;2022-12-18T05:02:27;15.70;;;6.97;;
69953;SDS011;57276;51.364;12.376;2022-12-18T05:08:28;19.35;;;8.18;;
69953;SDS011;57276;51.364;12.376;2022-12-18T05:14:30;14.85;;;7.28;;
69953;SDS011;57276;51.364;12.376;2022-12-18T05:20:31;18.43;;;7.47;;
69953;SDS011;57276;51.364;12.376;2022-12-18T05:26:33;18.17;;;7.80;;
69953;SDS011;57276;51.364;12.376;2022-12-18T05:32:35;20.03;;;6.80;;
69953;SDS011;57276;51.364;12.376;2022-12-18T05:38:37;13.90;;;6.55;;
69953;SDS011;57276;51.364;12.376;2022-12-18T05:44:39;18.00;;;7.45;;
69953;SDS011;57276;51.364;12.376;2022-12-18T05:50:41;12.43;;;5.87;;
69953;SDS011;57276;51.364;12.376;2022-12-18T05:56:43;17.27;;;7.25;;
69953;SDS011;57276;51.364;12.376;2022-12-18T06:02:49;23.37;;;8.93;;
69953;SDS011;57276;51.364;12.376;2022-12-18T06:08:51;14.65;;;6.70;;
69953;SDS011;57276;51.364;12.376;2022-12-18T06:14:53;18.00;;;7.93;;
69953;SDS011;57276;51.364;12.376;2022-12-18T06:20:58;15.07;;;6.13;;
69953;SDS011;57276;51.364;12.376;2022-12-18T06:26:59;14.73;;;7.07;;
69953;SDS011;57276;51.364;12.376;2022-12-18T06:33:01;15.43;;;5.97;;
69953;SDS011;57276;51.364;12.376;2022-12-18T06:39:02;15.00;;;6.18;;
69953;SDS011;57276;51.364;12.376;2022-12-18T06:45:04;14.65;;;5.78;;
69953;SDS011;57276;51.364;12.376;2022-12-18T06:51:06;11.97;;;6.47;;
69953;SDS011;57276;51.364;12.376;2022-12-18T06:57:07;13.55;;;6.45;;
69953;SDS011;57276;51.364;12.376;2022-12-18T07:03:09;16.27;;;6.93;;
69953;SDS011;57276;51.364;12.376;2022-12-18T07:09:12;16.30;;;8.23;;
69953;SDS011;57276;51.364;12.376;2022-12-18T07:15:14;16.63;;;7.03;;
69953;SDS011;57276;51.364;12.376;2022-12-18T07:21:17;18.50;;;7.17;;
69953;SDS011;57276;51.364;12.376;2022-12-18T07:27:19;19.38;;;7.88;;
69953;SDS011;57276;51.364;12.376;2022-12-18T07:33:20;14.40;;;6.90;;
69953;SDS011;57276;51.364;12.376;2022-12-18T07:39:22;17.83;;;8.68;;
69953;SDS011;57276;51.364;12.376;2022-12-18T07:45:24;14.90;;;6.45;;
69953;SDS011;57276;51.364;12.376;2022-12-18T07:51:25;17.37;;;7.23;;
69953;SDS011;57276;51.364;12.376;2022-12-18T07:57:27;17.13;;;7.28;;
69953;SDS011;57276;51.364;12.376;2022-12-18T08:03:48;16.63;;;7.33;;
69953;SDS011;57276;51.364;12.376;2022-12-18T08:09:52;26.33;;;7.63;;
69953;SDS011;57276;51.364;12.376;2022-12-18T08:16:01;18.15;;;8.85;;
69953;SDS011;57276;51.364;12.376;2022-12-18T08:22:02;16.10;;;7.50;;
69953;SDS011;57276;51.364;12.376;2022-12-18T08:28:04;19.30;;;7.93;;
69953;SDS011;57276;51.364;12.376;2022-12-18T08:34:05;18.80;;;7.80;;
69953;SDS011;57276;51.364;12.376;2022-12-18T08:40:07;13.52;;;7.15;;
69953;SDS011;57276;51.364;12.376;2022-12-18T08:46:09;15.48;;;6.28;;
69953;SDS011;57276;51.364;12.376;2022-12-18T08:52:14;13.53;;;6.47;;
69953;SDS011;57276;51.364;12.376;2022-12-18T08:58:15;11.38;;;6.45;;
69953;SDS011;57276;51.364;12.376;2022-12-18T09:04:17;13.47;;;6.00;;
69953;SDS011;57276;51.364;12.376;2022-12-18T09:10:18;14.90;;;5.88;;
69953;SDS011;57276;51.364;12.376;2022-12-18T09:16:21;14.85;;;6.85;;
69953;SDS011;57276;51.364;12.376;2022-12-18T09:22:30;18.50;;;8.40;;
69953;SDS011;57276;51.364;12.376;2022-12-18T09:28:32;16.20;;;7.70;;
69953;SDS011;57276;51.364;12.376;2022-12-18T09:34:34;15.03;;;7.70;;
69953;SDS011;57276;51.364;12.376;2022-12-18T09:40:36;18.73;;;7.78;;
69953;SDS011;57276;51.364;12.376;2022-12-18T09:46:43;13.65;;;6.47;;
69953;SDS011;57276;51.364;12.376;2022-12-18T09:52:48;14.67;;;6.30;;
69953;SDS011;57276;51.364;12.376;2022-12-18T09:58:55;13.95;;;7.07;;
69953;SDS011;57276;51.364;12.376;2022-12-18T10:11:09;16.63;;;7.60;;
69953;SDS011;57276;51.364;12.376;2022-12-18T10:17:18;25.10;;;6.97;;
69953;SDS011;57276;51.364;12.376;2022-12-18T10:23:45;13.37;;;6.87;;
69953;SDS011;57276;51.364;12.376;2022-12-18T10:29:49;18.10;;;7.05;;
69953;SDS011;57276;51.364;12.376;2022-12-18T10:35:50;14.17;;;6.57;;
69953;SDS011;57276;51.364;12.376;2022-12-18T10:41:56;14.32;;;6.47;;
69953;SDS011;57276;51.364;12.376;2022-12-18T10:48:19;13.27;;;5.78;;
69953;SDS011;57276;51.364;12.376;2022-12-18T10:54:22;11.40;;;6.17;;
69953;SDS011;57276;51.364;12.376;2022-12-18T11:00:26;15.73;;;6.53;;
69953;SDS011;57276;51.364;12.376;2022-12-18T11:06:29;15.10;;;6.47;;
69953;SDS011;57276;51.364;12.376;2022-12-18T11:12:33;13.85;;;6.20;;
69953;SDS011;57276;51.364;12.376;2022-12-18T11:18:35;15.70;;;6.70;;
69953;SDS011;57276;51.364;12.376;2022-12-18T11:24:37;14.37;;;6.47;;
69953;SDS011;57276;51.364;12.376;2022-12-18T11:30:38;15.13;;;6.80;;
69953;SDS011;57276;51.364;12.376;2022-12-18T11:36:46;14.37;;;6.27;;
69953;SDS011;57276;51.364;12.376;2022-12-18T11:42:54;11.55;;;5.53;;
69953;SDS011;57276;51.364;12.376;2022-12-18T11:49:07;14.50;;;5.78;;
69953;SDS011;57276;51.364;12.376;2022-12-18T12:07:46;13.77;;;5.47;;
69953;SDS011;57276;51.364;12.376;2022-12-18T12:14:05;15.07;;;7.20;;
69953;SDS011;57276;51.364;12.376;2022-12-18T12:20:12;19.00;;;7.80;;
69953;SDS011;57276;51.364;12.376;2022-12-18T12:26:25;15.07;;;7.00;;
69953;SDS011;57276;51.364;12.376;2022-12-18T12:32:41;14.10;;;6.13;;
69953;SDS011;57276;51.364;12.376;2022-12-18T12:38:55;13.30;;;6.47;;
69953;SDS011;57276;51.364;12.376;2022-12-18T12:44:58;10.63;;;5.05;;
69953;SDS011;57276;51.364;12.376;2022-12-18T12:51:01;10.98;;;5.38;;
69953;SDS011;57276;51.364;12.376;2022-12-18T13:03:08;14.57;;;6.13;;
69953;SDS011;57276;51.364;12.376;2022-12-18T13:09:13;12.17;;;5.30;;
69953;SDS011;57276;51.364;12.376;2022-12-18T13:15:22;13.63;;;5.30;;
69953;SDS011;57276;51.364;12.376;2022-12-18T13:21:28;15.35;;;7.00;;
69953;SDS011;57276;51.364;12.376;2022-12-18T13:33:42;16.48;;;7.18;;
69953;SDS011;57276;51.364;12.376;2022-12-18T13:40:15;16.30;;;6.93;;
69953;SDS011;57276;51.364;12.376;2022-12-18T13:52:28;17.00;;;7.00;;
69953;SDS011;57276;51.364;12.376;2022-12-18T13:58:30;18.10;;;7.97;;
69953;SDS011;57276;51.364;12.376;2022-12-18T14:04:32;25.10;;;11.10;;
69953;SDS011;57276;51.364;12.376;2022-12-18T14:10:34;29.67;;;11.77;;
69953;SDS011;57276;51.364;12.376;2022-12-18T14:16:50;26.20;;;10.93;;
69953;SDS011;57276;51.364;12.376;2022-12-18T14:22:52;29.20;;;12.82;;
69953;SDS011;57276;51.364;12.376;2022-12-18T14:28:58;29.77;;;11.57;;
69953;SDS011;57276;51.364;12.376;2022-12-18T14:35:00;38.50;;;14.80;;
69953;SDS011;57276;51.364;12.376;2022-12-18T14:41:15;28.93;;;11.83;;
69953;SDS011;57276;51.364;12.376;2022-12-18T14:47:17;31.25;;;13.68;;
69953;SDS011;57276;51.364;12.376;2022-12-18T14:53:39;29.35;;;12.20;;
69953;SDS011;57276;51.364;12.376;2022-12-18T14:59:42;33.57;;;13.63;;
69953;SDS011;57276;51.364;12.376;2022-12-18T15:05:44;23.35;;;10.30;;
69953;SDS011;57276;51.364;12.376;2022-12-18T15:11:47;28.87;;;10.67;;
69953;SDS011;57276;51.364;12.376;2022-12-18T15:17:56;29.77;;;11.20;;
69953;SDS011;57276;51.364;12.376;2022-12-18T15:23:57;18.90;;;8.63;;
69953;SDS011;57276;51.364;12.376;2022-12-18T15:30:00;21.77;;;9.93;;
69953;SDS011;57276;51.364;12.376;2022-12-18T15:36:03;24.45;;;9.48;;
69953;SDS011;57276;51.364;12.376;2022-12-18T15:42:07;21.30;;;8.90;;
69953;SDS011;57276;51.364;12.376;2022-12-18T15:48:28;27.38;;;11.27;;
69953;SDS011;57276;51.364;12.376;2022-12-18T15:54:30;22.88;;;10.75;;
69953;SDS011;57276;51.364;12.376;2022-12-18T16:00:51;24.97;;;10.60;;
69953;SDS011;57276;51.364;12.376;2022-12-18T16:06:53;26.98;;;11.65;;
69953;SDS011;57276;51.364;12.376;2022-12-18T16:13:15;31.57;;;13.03;;
69953;SDS011;57276;51.364;12.376;2022-12-18T16:19:19;24.58;;;11.18;;
69953;SDS011;57276;51.364;12.376;2022-12-18T16:25:24;27.60;;;11.02;;
69953;SDS011;57276;51.364;12.376;2022-12-18T16:31:27;28.50;;;10.90;;
69953;SDS011;57276;51.364;12.376;2022-12-18T16:37:29;26.50;;;10.85;;
69953;SDS011;57276;51.364;12.376;2022-12-18T16:43:31;23.63;;;10.80;;
69953;SDS011;57276;51.364;12.376;2022-12-18T16:49:33;26.77;;;11.85;;
69953;SDS011;57276;51.364;12.376;2022-12-18T16:55:34;25.08;;;10.20;;
69953;SDS011;57276;51.364;12.376;2022-12-18T17:01:36;24.77;;;10.63;;
69953;SDS011;57276;51.364;12.376;2022-12-18T17:07:38;22.83;;;10.57;;
69953;SDS011;57276;51.364;12.376;2022-12-18T17:13:41;20.27;;;9.60;;
69953;SDS011;57276;51.364;12.376;2022-12-18T17:19:43;20.98;;;9.88;;
69953;SDS011;57276;51.364;12.376;2022-12-18T17:25:45;22.58;;;8.38;;
69953;SDS011;57276;51.364;12.376;2022-12-18T17:31:47;22.60;;;8.80;;
69953;SDS011;57276;51.364;12.376;2022-12-18T17:37:49;20.88;;;8.60;;
69953;SDS011;57276;51.364;12.376;2022-12-18T17:43:54;23.90;;;10.07;;
69953;SDS011;57276;51.364;12.376;2022-12-18T17:49:56;23.10;;;9.68;;
69953;SDS011;57276;51.364;12.376;2022-12-18T17:55:58;22.58;;;9.40;;
69953;SDS011;57276;51.364;12.376;2022-12-18T18:02:02;22.67;;;9.97;;
69953;SDS011;57276;51.364;12.376;2022-12-18T18:08:05;25.00;;;10.95;;
69953;SDS011;57276;51.364;12.376;2022-12-18T18:14:11;22.33;;;9.77;;
69953;SDS011;57276;51.364;12.376;2022-12-18T18:20:13;22.08;;;9.48;;
69953;SDS011;57276;51.364;12.376;2022-12-18T18:26:23;23.92;;;9.38;;
69953;SDS011;57276;51.364;12.376;2022-12-18T18:32:28;22.67;;;9.27;;
69953;SDS011;57276;51.364;12.376;2022-12-18T18:38:29;23.40;;;9.00;;
69953;SDS011;57276;51.364;12.376;2022-12-18T18:44:31;22.27;;;8.70;;
69953;SDS011;57276;51.364;12.376;2022-12-18T18:50:33;28.83;;;12.10;;
69953;SDS011;57276;51.364;12.376;2022-12-18T18:56:36;21.85;;;10.10;;
69953;SDS011;57276;51.364;12.376;2022-12-18T19:02:58;24.40;;;9.73;;
69953;SDS011;57276;51.364;12.376;2022-12-18T19:09:02;29.98;;;12.88;;
69953;SDS011;57276;51.364;12.376;2022-12-18T19:15:05;28.40;;;13.17;;
69953;SDS011;57276;51.364;12.376;2022-12-18T19:21:07;21.33;;;9.93;;
69953;SDS011;57276;51.364;12.376;2022-12-18T19:27:09;20.15;;;8.52;;
69953;SDS011;57276;51.364;12.376;2022-12-18T19:33:11;18.27;;;7.53;;
69953;SDS011;57276;51.364;12.376;2022-12-18T19:39:33;19.75;;;8.02;;
69953;SDS011;57276;51.364;12.376;2022-12-18T19:45:34;17.43;;;7.90;;
69953;SDS011;57276;51.364;12.376;2022-12-18T19:51:36;17.58;;;6.63;;
69953;SDS011;57276;51.364;12.376;2022-12-18T19:57:38;15.68;;;6.10;;
69953;SDS011;57276;51.364;12.376;2022-12-18T20:03:40;16.00;;;7.80;;
69953;SDS011;57276;51.364;12.376;2022-12-18T20:09:42;18.15;;;7.38;;
69953;SDS011;57276;51.364;12.376;2022-12-18T20:15:45;18.17;;;7.70;;
69953;SDS011;57276;51.364;12.376;2022-12-18T20:21:46;17.38;;;7.55;;
69953;SDS011;57276;51.364;12.376;2022-12-18T20:27:48;16.45;;;7.40;;
69953;SDS011;57276;51.364;12.376;2022-12-18T20:33:50;18.70;;;8.00;;
69953;SDS011;57276;51.364;12.376;2022-12-18T20:39:54;17.50;;;6.57;;
69953;SDS011;57276;51.364;12.376;2022-12-18T20:46:03;18.20;;;7.40;;
69953;SDS011;57276;51.364;12.376;2022-12-18T20:52:05;17.25;;;6.80;;
69953;SDS011;57276;51.364;12.376;2022-12-18T20:58:07;17.00;;;7.70;;
69953;SDS011;57276;51.364;12.376;2022-12-18T21:04:08;21.60;;;7.10;;
69953;SDS011;57276;51.364;12.376;2022-12-18T21:10:10;18.23;;;7.50;;
69953;SDS011;57276;51.364;12.376;2022-12-18T21:16:11;18.20;;;6.70;;
69953;SDS011;57276;51.364;12.376;2022-12-18T21:22:13;18.55;;;6.95;;
69953;SDS011;57276;51.364;12.376;2022-12-18T21:28:14;15.55;;;6.47;;
69953;SDS011;57276;51.364;12.376;2022-12-18T21:34:17;17.87;;;7.27;;
69953;SDS011;57276;51.364;12.376;2022-12-18T21:40:18;18.35;;;6.82;;
69953;SDS011;57276;51.364;12.376;2022-12-18T21:46:20;21.93;;;8.07;;
69953;SDS011;57276;51.364;12.376;2022-12-18T21:52:22;20.88;;;7.40;;
69953;SDS011;57276;51.364;12.376;2022-12-18T21:58:32;19.00;;;6.70;;
69953;SDS011;57276;51.364;12.376;2022-12-18T22:04:34;16.53;;;6.30;;
69953;SDS011;57276;51.364;12.376;2022-12-18T22:10:36;19.00;;;7.15;;
69953;SDS011;57276;51.364;12.376;2022-12-18T22:16:38;19.23;;;7.23;;
69953;SDS011;57276;51.364;12.376;2022-12-18T22:22:40;17.48;;;7.70;;
69953;SDS011;57276;51.364;12.376;2022-12-18T22:28:41;17.85;;;6.47;;
69953;SDS011;57276;51.364;12.376;2022-12-18T22:35:02;16.10;;;6.40;;
69953;SDS011;57276;51.364;12.376;2022-12-18T22:41:13;18.15;;;7.22;;
69953;SDS011;57276;51.364;12.376;2022-12-18T22:47:14;21.00;;;7.43;;
69953;SDS011;57276;51.364;12.376;2022-12-18T22:53:16;18.67;;;6.25;;
69953;SDS011;57276;51.364;12.376;2022-12-18T22:59:18;18.75;;;7.70;;
69953;SDS011;57276;51.364;12.376;2022-12-18T23:05:20;16.73;;;5.93;;
69953;SDS011;57276;51.364;12.376;2022-12-18T23:11:22;15.52;;;6.22;;
69953;SDS011;57276;51.364;12.376;2022-12-18T23:17:23;17.73;;;6.93;;
69953;SDS011;57276;51.364;12.376;2022-12-18T23:23:25;21.63;;;6.57;;
69953;SDS011;57276;51.364;12.376;2022-12-18T23:29:26;18.25;;;7.15;;
69953;SDS011;57276;51.364;12.376;2022-12-18T23:35:28;17.47;;;6.77;;
69953;SDS011;57276;51.364;12.376;2022-12-18T23:41:30;14.93;;;6.50;;
69953;SDS011;57276;51.364;12.376;2022-12-18T23:47:31;15.53;;;7.13;;
69953;SDS011;57276;51.364;12.376;2022-12-18T23:53:33;21.65;;;8.13;;
69953;SDS011;57276;51.364;12.376;2022-12-18T23:59:35;21.83;;;7.35;;
